createdAt,value
2018-12-27T00:00:05.412Z,0.70
2018-12-27T00:02:34.884Z,0.70
2018-12-27T00:05:04.333Z,0.80
2018-12-27T00:07:33.708Z,0.80
2018-12-27T00:10:03.602Z,0.80
2018-12-27T00:12:32.956Z,0.80
2018-12-27T00:15:02.328Z,0.80
2018-12-27T00:17:31.752Z,0.80
2018-12-27T00:20:01.372Z,0.70
2018-12-27T00:22:30.824Z,0.60
2018-12-27T00:25:00.303Z,0.60
2018-12-27T00:27:29.642Z,0.50
2018-12-27T00:30:01.108Z,0.50
2018-12-27T00:32:30.754Z,0.60
2018-12-27T00:35:00.349Z,0.60
2018-12-27T00:37:29.937Z,0.60
2018-12-27T00:39:59.464Z,0.60
2018-12-27T00:42:28.982Z,0.60
2018-12-27T00:44:58.599Z,0.70
2018-12-27T00:47:28.249Z,0.70
2018-12-27T00:49:57.749Z,0.70
2018-12-27T00:52:27.255Z,0.70
2018-12-27T00:54:56.878Z,0.60
2018-12-27T00:57:26.477Z,0.60
2018-12-27T00:59:56.089Z,0.60
2018-12-27T01:02:25.684Z,0.60
2018-12-27T01:04:55.281Z,0.60
2018-12-27T01:07:24.929Z,0.60
2018-12-27T01:09:54.577Z,0.60
2018-12-27T01:12:24.174Z,0.60
2018-12-27T01:14:53.735Z,0.60
2018-12-27T01:17:23.375Z,0.60
2018-12-27T01:19:52.896Z,0.40
2018-12-27T01:22:22.407Z,0.50
2018-12-27T01:24:52.024Z,0.40
2018-12-27T01:27:21.628Z,0.40
2018-12-27T01:29:51.230Z,0.20
2018-12-27T01:32:20.885Z,0.20
2018-12-27T01:34:50.467Z,0.10
2018-12-27T01:37:19.998Z,0.10
2018-12-27T01:39:49.631Z,0.10
2018-12-27T01:42:19.139Z,0.00
2018-12-27T01:44:48.688Z,0.00
2018-12-27T01:47:18.275Z,0.00
2018-12-27T01:49:47.788Z,0.00
2018-12-27T01:52:17.326Z,0.00
2018-12-27T01:54:46.894Z,0.00
2018-12-27T01:57:16.460Z,0.00
2018-12-27T01:59:45.956Z,0.00
2018-12-27T02:02:15.507Z,0.00
2018-12-27T02:04:45.027Z,0.00
2018-12-27T02:07:14.490Z,0.10
2018-12-27T02:09:44.123Z,0.00
2018-12-27T02:12:13.736Z,0.00
2018-12-27T02:14:43.370Z,0.00
2018-12-27T02:17:12.927Z,0.00
2018-12-27T02:19:42.519Z,0.10
2018-12-27T02:22:12.109Z,0.10
2018-12-27T02:24:41.753Z,0.00
2018-12-27T02:27:11.267Z,-0.20
2018-12-27T02:29:40.857Z,-0.20
2018-12-27T02:32:10.512Z,-0.20
2018-12-27T02:34:40.090Z,-0.20
2018-12-27T02:37:09.759Z,-0.30
2018-12-27T02:39:40.199Z,-0.40
2018-12-27T02:42:10.034Z,-0.40
2018-12-27T02:44:39.589Z,-0.50
2018-12-27T02:47:09.227Z,-0.50
2018-12-27T02:49:38.725Z,-0.50
2018-12-27T02:52:08.296Z,-0.40
2018-12-27T02:54:37.931Z,-0.30
2018-12-27T02:57:07.526Z,-0.30
2018-12-27T02:59:37.137Z,-0.20
2018-12-27T03:02:06.905Z,-0.20
2018-12-27T03:04:36.540Z,-0.10
2018-12-27T03:07:06.313Z,-0.10
2018-12-27T03:09:35.922Z,0.00
2018-12-27T03:12:05.427Z,-0.10
2018-12-27T03:14:35.233Z,0.00
2018-12-27T03:17:04.813Z,0.00
2018-12-27T03:19:34.401Z,-0.10
2018-12-27T03:22:04.025Z,0.00
2018-12-27T03:24:33.655Z,-0.10
2018-12-27T03:27:03.228Z,-0.10
2018-12-27T03:29:32.751Z,-0.20
2018-12-27T03:32:02.391Z,-0.20
2018-12-27T03:34:32.016Z,-0.30
2018-12-27T03:37:01.633Z,-0.30
2018-12-27T03:39:31.226Z,-0.30
2018-12-27T03:42:00.794Z,-0.30
2018-12-27T03:44:30.369Z,-0.30
2018-12-27T03:46:59.964Z,-0.30
2018-12-27T03:49:29.548Z,-0.40
2018-12-27T03:51:59.096Z,-0.50
2018-12-27T03:54:28.703Z,-0.50
2018-12-27T03:56:58.263Z,-0.50
2018-12-27T03:59:27.814Z,-0.50
2018-12-27T04:01:57.405Z,-0.60
2018-12-27T04:04:26.945Z,-0.60
2018-12-27T04:06:56.549Z,-0.60
2018-12-27T04:09:26.147Z,-0.50
2018-12-27T04:11:55.730Z,-0.50
2018-12-27T04:14:25.514Z,-0.40
2018-12-27T04:16:55.076Z,-0.30
2018-12-27T04:19:24.530Z,-0.30
2018-12-27T04:21:53.956Z,-0.20
2018-12-27T04:24:23.871Z,-0.20
2018-12-27T04:26:53.326Z,-0.10
2018-12-27T04:29:22.777Z,-0.10
2018-12-27T04:31:54.509Z,-0.10
2018-12-27T04:34:25.264Z,0.00
2018-12-27T04:36:56.414Z,0.00
2018-12-27T04:39:25.896Z,0.00
2018-12-27T04:41:55.459Z,0.00
2018-12-27T04:44:25.066Z,0.00
2018-12-27T04:46:54.607Z,0.00
2018-12-27T04:49:24.042Z,0.00
2018-12-27T04:51:53.389Z,-0.10
2018-12-27T04:54:22.797Z,-0.10
2018-12-27T04:56:52.222Z,-0.10
2018-12-27T04:59:21.646Z,-0.10
2018-12-27T05:01:51.104Z,-0.10
2018-12-27T05:04:20.562Z,-0.10
2018-12-27T05:06:49.963Z,-0.10
2018-12-27T05:09:19.387Z,-0.30
2018-12-27T05:11:48.831Z,-0.30
2018-12-27T05:14:18.239Z,-0.30
2018-12-27T05:16:47.678Z,-0.40
2018-12-27T05:19:17.071Z,-0.60
2018-12-27T05:21:46.487Z,-0.60
2018-12-27T05:24:15.942Z,-0.50
2018-12-27T05:26:45.396Z,-0.70
2018-12-27T05:29:14.811Z,-0.70
2018-12-27T05:31:44.232Z,-0.70
2018-12-27T05:34:13.708Z,-0.60
2018-12-27T05:36:43.121Z,-0.60
2018-12-27T05:39:12.501Z,-0.50
2018-12-27T05:41:41.896Z,-0.50
2018-12-27T05:44:11.346Z,-0.50
2018-12-27T05:46:40.807Z,-0.50
2018-12-27T05:49:10.263Z,-0.40
2018-12-27T05:51:39.740Z,-0.40
2018-12-27T05:54:09.214Z,-0.40
2018-12-27T05:56:38.670Z,-0.40
2018-12-27T05:59:08.072Z,-0.30
2018-12-27T06:01:37.493Z,-0.30
2018-12-27T06:04:06.834Z,-0.30
2018-12-27T06:06:36.192Z,-0.30
2018-12-27T06:09:07.348Z,-0.30
2018-12-27T06:11:36.720Z,-0.20
2018-12-27T06:14:06.188Z,-0.30
2018-12-27T06:16:35.686Z,-0.30
2018-12-27T06:19:05.041Z,-0.30
2018-12-27T06:21:34.503Z,-0.30
2018-12-27T06:24:03.908Z,-0.30
2018-12-27T06:26:33.295Z,-0.50
2018-12-27T06:29:02.746Z,-0.70
2018-12-27T06:31:32.265Z,-0.70
2018-12-27T06:34:01.631Z,-0.70
2018-12-27T06:36:31.084Z,-0.80
2018-12-27T06:39:00.539Z,-0.70
2018-12-27T06:41:29.893Z,-0.70
2018-12-27T06:43:59.336Z,-0.70
2018-12-27T06:46:28.743Z,-0.60
2018-12-27T06:48:58.202Z,-0.60
2018-12-27T06:51:27.616Z,-0.70
2018-12-27T06:53:57.082Z,-0.60
2018-12-27T06:56:26.448Z,-0.60
2018-12-27T06:58:55.910Z,-0.60
2018-12-27T07:01:25.373Z,-0.60
2018-12-27T07:03:54.701Z,-0.50
2018-12-27T07:06:24.099Z,-0.50
2018-12-27T07:08:53.578Z,-0.50
2018-12-27T07:11:22.938Z,-0.50
2018-12-27T07:13:52.331Z,-0.50
2018-12-27T07:16:21.808Z,-0.50
2018-12-27T07:18:51.209Z,-0.40
2018-12-27T07:21:20.613Z,-0.40
2018-12-27T07:23:52.348Z,-0.40
2018-12-27T07:26:21.749Z,-0.50
2018-12-27T07:28:51.189Z,-0.40
2018-12-27T07:31:20.679Z,-0.50
2018-12-27T07:33:50.058Z,-0.60
2018-12-27T07:36:19.417Z,-0.70
2018-12-27T07:38:48.812Z,-0.80
2018-12-27T07:41:18.110Z,-0.90
2018-12-27T07:43:48.132Z,-0.90
2018-12-27T07:46:17.505Z,-0.90
2018-12-27T07:48:46.858Z,-0.80
2018-12-27T07:51:16.210Z,-0.70
2018-12-27T07:53:45.724Z,-0.60
2018-12-27T07:56:15.194Z,-0.60
2018-12-27T07:58:44.592Z,-0.50
2018-12-27T08:01:14.019Z,-0.40
2018-12-27T08:03:43.465Z,-0.40
2018-12-27T08:06:12.896Z,-0.30
2018-12-27T08:08:42.408Z,-0.20
2018-12-27T08:11:11.837Z,-0.20
2018-12-27T08:13:41.281Z,-0.10
2018-12-27T08:16:10.787Z,-0.10
2018-12-27T08:18:40.247Z,-0.10
2018-12-27T08:21:09.562Z,0.00
2018-12-27T08:23:39.046Z,0.10
2018-12-27T08:26:08.509Z,0.10
2018-12-27T08:28:37.828Z,0.10
2018-12-27T08:31:07.231Z,0.20
2018-12-27T08:33:36.617Z,0.20
2018-12-27T08:36:05.975Z,0.20
2018-12-27T08:38:35.405Z,0.20
2018-12-27T08:41:04.839Z,0.30
2018-12-27T08:43:34.260Z,0.30
2018-12-27T08:46:03.664Z,0.40
2018-12-27T08:48:33.006Z,0.40
2018-12-27T08:51:02.455Z,0.40
2018-12-27T08:53:31.940Z,0.50
2018-12-27T08:56:01.295Z,0.50
2018-12-27T08:58:30.681Z,0.50
2018-12-27T09:01:00.213Z,0.50
2018-12-27T09:03:29.657Z,0.60
2018-12-27T09:05:59.071Z,0.60
2018-12-27T09:08:28.606Z,0.70
2018-12-27T09:10:58.051Z,0.70
2018-12-27T09:13:27.487Z,0.80
2018-12-27T09:15:56.963Z,0.80
2018-12-27T09:18:26.347Z,0.90
2018-12-27T09:20:55.811Z,1.00
2018-12-27T09:23:25.327Z,1.10
2018-12-27T09:25:54.789Z,1.10
2018-12-27T09:28:24.141Z,1.20
2018-12-27T09:30:53.506Z,1.20
2018-12-27T09:33:22.852Z,1.30
2018-12-27T09:35:52.221Z,1.40
2018-12-27T09:38:21.682Z,1.40
2018-12-27T09:40:51.068Z,1.50
2018-12-27T09:43:20.529Z,1.60
2018-12-27T09:45:50.005Z,1.60
2018-12-27T09:48:19.465Z,1.70
2018-12-27T09:50:48.885Z,1.80
2018-12-27T09:53:18.371Z,1.80
2018-12-27T09:55:47.726Z,1.90
2018-12-27T09:58:17.069Z,1.90
2018-12-27T10:00:46.467Z,1.90
2018-12-27T10:03:15.866Z,2.00
2018-12-27T10:05:45.276Z,2.00
2018-12-27T10:08:14.666Z,2.10
2018-12-27T10:10:44.164Z,2.00
2018-12-27T10:13:13.616Z,2.10
2018-12-27T10:15:43.026Z,2.20
2018-12-27T10:18:12.480Z,2.20
2018-12-27T10:20:41.867Z,2.20
2018-12-27T10:23:11.279Z,2.20
2018-12-27T10:25:40.761Z,2.20
2018-12-27T10:28:10.123Z,2.30
2018-12-27T10:30:39.635Z,2.30
2018-12-27T10:33:09.047Z,2.40
2018-12-27T10:35:41.238Z,2.40
2018-12-27T10:38:09.501Z,2.50
2018-12-27T10:40:38.845Z,2.50
2018-12-27T10:43:08.214Z,2.50
2018-12-27T10:45:37.726Z,2.60
2018-12-27T10:48:07.060Z,2.50
2018-12-27T10:50:36.422Z,2.50
2018-12-27T10:53:05.852Z,2.60
2018-12-27T10:55:35.205Z,2.60
2018-12-27T10:58:04.683Z,2.60
2018-12-27T11:00:34.192Z,2.70
2018-12-27T11:03:03.510Z,2.70
2018-12-27T11:05:32.854Z,2.70
2018-12-27T11:08:02.263Z,2.80
2018-12-27T11:10:31.678Z,2.90
2018-12-27T11:13:00.998Z,2.90
2018-12-27T11:15:30.430Z,3.00
2018-12-27T11:17:59.784Z,3.00
2018-12-27T11:20:29.336Z,2.90
2018-12-27T11:22:58.812Z,2.90
2018-12-27T11:25:28.244Z,2.90
2018-12-27T11:27:57.647Z,2.90
2018-12-27T11:30:27.108Z,3.00
2018-12-27T11:32:56.555Z,3.00
2018-12-27T11:35:25.978Z,2.90
2018-12-27T11:37:55.394Z,2.90
2018-12-27T11:40:24.839Z,3.00
2018-12-27T11:42:54.255Z,3.00
2018-12-27T11:45:23.763Z,3.10
2018-12-27T11:47:53.178Z,3.10
2018-12-27T11:50:22.598Z,3.00
2018-12-27T11:52:51.991Z,3.00
2018-12-27T11:55:21.335Z,3.00
2018-12-27T11:57:50.665Z,3.00
2018-12-27T12:00:20.067Z,3.00
2018-12-27T12:02:49.419Z,3.00
2018-12-27T12:05:18.862Z,3.10
2018-12-27T12:07:48.313Z,3.10
2018-12-27T12:10:17.673Z,3.30
2018-12-27T12:12:47.023Z,3.30
2018-12-27T12:15:16.462Z,3.40
2018-12-27T12:17:45.822Z,3.50
2018-12-27T12:20:15.176Z,3.60
2018-12-27T12:22:44.630Z,3.70
2018-12-27T12:25:13.977Z,3.60
2018-12-27T12:27:43.479Z,3.70
2018-12-27T12:30:13.043Z,3.70
2018-12-27T12:32:42.442Z,3.80
2018-12-27T12:35:12.057Z,3.80
2018-12-27T12:37:41.487Z,3.90
2018-12-27T12:40:10.965Z,3.90
2018-12-27T12:42:40.374Z,3.90
2018-12-27T12:45:09.785Z,3.90
2018-12-27T12:47:39.214Z,4.00
2018-12-27T12:50:09.346Z,4.00
2018-12-27T12:52:42.016Z,4.00
2018-12-27T12:55:11.419Z,4.00
2018-12-27T12:57:40.786Z,4.00
2018-12-27T13:00:12.293Z,3.90
2018-12-27T13:02:41.742Z,4.00
2018-12-27T13:05:11.171Z,4.00
2018-12-27T13:07:40.651Z,4.00
2018-12-27T13:10:10.017Z,4.00
2018-12-27T13:12:39.443Z,4.00
2018-12-27T13:15:08.939Z,4.00
2018-12-27T13:17:38.373Z,4.10
2018-12-27T13:20:07.899Z,4.10
2018-12-27T13:22:37.513Z,4.10
2018-12-27T13:25:06.893Z,4.20
2018-12-27T13:27:36.330Z,4.20
2018-12-27T13:30:05.960Z,4.20
2018-12-27T13:32:35.430Z,4.20
2018-12-27T13:35:04.860Z,4.10
2018-12-27T13:37:34.293Z,4.10
2018-12-27T13:40:03.784Z,4.20
2018-12-27T13:42:33.198Z,4.20
2018-12-27T13:45:02.617Z,4.20
2018-12-27T13:47:31.988Z,4.30
2018-12-27T13:50:01.403Z,4.30
2018-12-27T13:52:30.895Z,4.30
2018-12-27T13:55:00.334Z,4.30
2018-12-27T13:57:29.810Z,4.30
2018-12-27T13:59:59.235Z,4.20
2018-12-27T14:02:28.640Z,4.30
2018-12-27T14:04:57.985Z,4.30
2018-12-27T14:07:27.560Z,4.30
2018-12-27T14:09:56.918Z,4.30
2018-12-27T14:12:26.334Z,4.30
2018-12-27T14:14:55.715Z,4.30
2018-12-27T14:17:25.093Z,4.30
2018-12-27T14:19:54.535Z,4.30
2018-12-27T14:22:24.005Z,4.30
2018-12-27T14:24:57.928Z,4.30
2018-12-27T14:27:24.536Z,4.30
2018-12-27T14:29:53.920Z,4.30
2018-12-27T14:32:24.328Z,4.30
2018-12-27T14:34:53.771Z,4.30
2018-12-27T14:37:23.334Z,4.30
2018-12-27T14:39:53.080Z,4.30
2018-12-27T14:42:22.503Z,4.30
2018-12-27T14:44:51.937Z,4.30
2018-12-27T14:47:21.307Z,4.30
2018-12-27T14:49:50.739Z,4.30
2018-12-27T14:52:20.216Z,4.30
2018-12-27T14:54:49.671Z,4.30
2018-12-27T14:57:19.076Z,4.20
2018-12-27T14:59:48.570Z,4.20
2018-12-27T15:02:17.967Z,4.20
2018-12-27T15:04:47.398Z,4.20
2018-12-27T15:07:17.156Z,4.20
2018-12-27T15:09:46.521Z,4.20
2018-12-27T15:12:15.943Z,4.10
2018-12-27T15:14:45.390Z,4.10
2018-12-27T15:17:14.825Z,4.10
2018-12-27T15:19:44.265Z,4.10
2018-12-27T15:22:13.908Z,4.10
2018-12-27T15:24:43.309Z,4.00
2018-12-27T15:27:12.644Z,4.00
2018-12-27T15:29:42.280Z,4.00
2018-12-27T15:32:11.610Z,4.00
2018-12-27T15:34:41.002Z,3.90
2018-12-27T15:37:10.490Z,3.90
2018-12-27T15:39:39.850Z,3.90
2018-12-27T15:42:09.296Z,3.90
2018-12-27T15:44:38.826Z,3.90
2018-12-27T15:47:08.193Z,3.80
2018-12-27T15:49:37.612Z,3.80
2018-12-27T15:52:07.024Z,3.80
2018-12-27T15:54:36.417Z,3.70
2018-12-27T15:57:05.969Z,3.70
2018-12-27T15:59:35.467Z,3.70
2018-12-27T16:02:04.914Z,3.70
2018-12-27T16:04:34.367Z,3.70
2018-12-27T16:07:03.885Z,3.70
2018-12-27T16:09:33.267Z,3.70
2018-12-27T16:12:02.716Z,3.70
2018-12-27T16:14:32.170Z,3.70
2018-12-27T16:17:01.610Z,3.70
2018-12-27T16:19:31.013Z,3.70
2018-12-27T16:22:00.500Z,3.70
2018-12-27T16:24:29.950Z,3.70
2018-12-27T16:26:59.404Z,3.70
2018-12-27T16:29:28.911Z,3.70
2018-12-27T16:31:58.309Z,3.70
2018-12-27T16:34:27.870Z,3.60
2018-12-27T16:36:57.370Z,3.70
2018-12-27T16:39:26.886Z,3.70
2018-12-27T16:41:56.336Z,3.60
2018-12-27T16:44:25.844Z,3.70
2018-12-27T16:46:55.319Z,3.60
2018-12-27T16:49:24.791Z,3.60
2018-12-27T16:51:54.219Z,3.50
2018-12-27T16:54:23.927Z,3.40
2018-12-27T16:56:53.344Z,3.30
2018-12-27T16:59:22.914Z,3.20
2018-12-27T17:01:52.342Z,3.20
2018-12-27T17:04:21.800Z,3.20
2018-12-27T17:06:51.265Z,3.20
2018-12-27T17:09:20.655Z,3.10
2018-12-27T17:11:50.088Z,3.10
2018-12-27T17:14:19.484Z,3.10
2018-12-27T17:16:48.854Z,3.10
2018-12-27T17:19:18.264Z,3.10
2018-12-27T17:21:47.666Z,3.00
2018-12-27T17:24:17.040Z,3.00
2018-12-27T17:26:46.420Z,3.00
2018-12-27T17:29:15.897Z,3.00
2018-12-27T17:31:45.306Z,2.90
2018-12-27T17:34:14.732Z,2.90
2018-12-27T17:36:44.207Z,2.90
2018-12-27T17:39:13.657Z,2.90
2018-12-27T17:41:43.050Z,2.90
2018-12-27T17:44:12.679Z,2.80
2018-12-27T17:46:42.147Z,2.80
2018-12-27T17:49:11.627Z,2.80
2018-12-27T17:51:41.093Z,2.70
2018-12-27T17:54:10.560Z,2.70
2018-12-27T17:56:39.993Z,2.70
2018-12-27T17:59:09.417Z,2.70
2018-12-27T18:01:38.766Z,2.60
2018-12-27T18:04:08.099Z,2.70
2018-12-27T18:06:37.574Z,2.60
2018-12-27T18:09:08.020Z,2.60
2018-12-27T18:11:37.465Z,2.60
2018-12-27T18:14:06.937Z,2.70
2018-12-27T18:16:36.392Z,2.60
2018-12-27T18:19:05.793Z,2.70
2018-12-27T18:21:35.345Z,2.70
2018-12-27T18:24:04.684Z,2.60
2018-12-27T18:26:34.038Z,2.70
2018-12-27T18:29:03.462Z,2.70
2018-12-27T18:31:32.893Z,2.70
2018-12-27T18:34:02.357Z,2.70
2018-12-27T18:36:31.924Z,2.70
2018-12-27T18:39:01.319Z,2.70
2018-12-27T18:41:30.753Z,2.70
2018-12-27T18:44:00.219Z,2.70
2018-12-27T18:46:29.667Z,2.70
2018-12-27T18:48:59.094Z,2.70
2018-12-27T18:51:28.589Z,2.80
2018-12-27T18:53:58.271Z,2.70
2018-12-27T18:56:27.652Z,2.70
2018-12-27T18:58:57.035Z,2.70
2018-12-27T19:01:26.412Z,2.70
2018-12-27T19:03:55.791Z,2.80
2018-12-27T19:06:25.357Z,2.80
2018-12-27T19:08:54.705Z,2.80
2018-12-27T19:12:19.205Z,2.80
2018-12-27T19:14:49.227Z,2.70
2018-12-27T19:17:26.365Z,2.70
2018-12-27T19:19:55.820Z,2.70
2018-12-27T19:22:41.214Z,2.70
2018-12-27T19:25:10.609Z,2.70
2018-12-27T19:27:40.023Z,2.70
2018-12-27T19:30:09.558Z,2.80
2018-12-27T19:32:38.992Z,2.80
2018-12-27T19:35:08.437Z,2.80
2018-12-27T19:37:37.831Z,2.80
2018-12-27T19:40:07.481Z,2.80
2018-12-27T19:42:36.956Z,2.80
2018-12-27T19:45:06.390Z,2.80
2018-12-27T19:47:35.821Z,2.80
2018-12-27T19:50:05.392Z,2.80
2018-12-27T19:52:34.838Z,2.80
2018-12-27T19:55:04.401Z,2.80
2018-12-27T19:57:33.765Z,2.90
2018-12-27T20:00:03.373Z,2.90
2018-12-27T20:02:32.749Z,2.90
2018-12-27T20:05:02.212Z,2.90
2018-12-27T20:07:32.160Z,2.90
2018-12-27T20:10:01.529Z,2.90
2018-12-27T20:12:30.942Z,2.90
2018-12-27T20:15:00.387Z,2.90
2018-12-27T20:17:29.698Z,2.90
2018-12-27T20:19:59.082Z,2.90
2018-12-27T20:22:28.635Z,2.90
2018-12-27T20:24:58.104Z,2.90
2018-12-27T20:27:27.492Z,2.90
2018-12-27T20:29:56.892Z,2.90
2018-12-27T20:32:26.243Z,2.90
2018-12-27T20:34:55.759Z,3.00
2018-12-27T20:37:25.185Z,2.90
2018-12-27T20:39:54.638Z,2.90
2018-12-27T20:42:27.228Z,2.90
2018-12-27T20:44:56.629Z,2.90
2018-12-27T20:47:26.003Z,2.90
2018-12-27T20:49:55.410Z,2.90
2018-12-27T20:52:24.828Z,2.90
2018-12-27T20:54:54.304Z,2.90
2018-12-27T20:57:23.804Z,2.90
2018-12-27T20:59:53.276Z,2.90
2018-12-27T21:02:22.695Z,2.90
2018-12-27T21:04:52.164Z,2.90
2018-12-27T21:07:21.681Z,2.90
2018-12-27T21:09:51.045Z,2.90
2018-12-27T21:12:20.504Z,2.90
2018-12-27T21:14:49.961Z,2.90
2018-12-27T21:17:19.385Z,2.80
2018-12-27T21:19:48.809Z,2.70
2018-12-27T21:22:18.296Z,2.60
2018-12-27T21:24:47.649Z,2.50
2018-12-27T21:27:17.322Z,2.40
2018-12-27T21:29:46.765Z,2.30
2018-12-27T21:32:16.206Z,2.20
2018-12-27T21:34:45.574Z,2.10
2018-12-27T21:37:14.982Z,2.10
2018-12-27T21:39:44.418Z,2.10
2018-12-27T21:42:13.786Z,2.10
2018-12-27T21:44:43.258Z,2.00
2018-12-27T21:47:12.615Z,2.00
2018-12-27T21:49:42.214Z,1.90
2018-12-27T21:52:11.667Z,1.90
2018-12-27T21:54:41.103Z,1.90
2018-12-27T21:57:10.532Z,1.90
2018-12-27T21:59:39.953Z,1.80
2018-12-27T22:02:09.418Z,1.80
2018-12-27T22:04:38.777Z,1.80
2018-12-27T22:07:08.193Z,1.80
2018-12-27T22:09:37.613Z,1.90
2018-12-27T22:12:07.854Z,1.90
2018-12-27T22:14:37.243Z,1.90
2018-12-27T22:17:06.586Z,1.90
2018-12-27T22:19:35.953Z,1.90
2018-12-27T22:22:05.373Z,1.90
2018-12-27T22:24:34.796Z,2.00
2018-12-27T22:27:04.194Z,2.00
2018-12-27T22:29:33.689Z,2.00
2018-12-27T22:32:03.085Z,2.10
2018-12-27T22:34:32.534Z,2.10
2018-12-27T22:37:02.028Z,2.10
2018-12-27T22:39:31.395Z,2.20
2018-12-27T22:42:00.829Z,2.20
2018-12-27T22:44:30.386Z,2.20
2018-12-27T22:46:59.811Z,2.30
2018-12-27T22:49:29.163Z,2.30
2018-12-27T22:51:58.668Z,2.30
2018-12-27T22:54:28.201Z,2.30
2018-12-27T22:56:57.592Z,2.40
2018-12-27T22:59:27.113Z,2.40
2018-12-27T23:01:56.463Z,2.40
2018-12-27T23:04:25.848Z,2.40
2018-12-27T23:06:55.333Z,2.50
2018-12-27T23:09:24.679Z,2.50
2018-12-27T23:11:54.037Z,2.50
2018-12-27T23:14:23.510Z,2.50
2018-12-27T23:16:53.079Z,2.50
2018-12-27T23:19:22.452Z,2.50
2018-12-27T23:21:51.980Z,2.50
2018-12-27T23:24:21.422Z,2.50
2018-12-27T23:26:50.778Z,2.50
2018-12-27T23:29:20.180Z,2.50
2018-12-27T23:31:49.560Z,2.50
2018-12-27T23:34:18.976Z,2.50
2018-12-27T23:36:48.472Z,2.50
2018-12-27T23:39:17.860Z,2.60
2018-12-27T23:41:47.207Z,2.60
2018-12-27T23:44:16.695Z,2.60
2018-12-27T23:46:46.210Z,2.60
2018-12-27T23:49:15.619Z,2.60
2018-12-27T23:51:45.103Z,2.60
2018-12-27T23:54:14.582Z,2.70
2018-12-27T23:56:44.002Z,2.60
2018-12-27T23:59:13.463Z,2.50
